Time;durP1;ratioP1;P1;durP2;ratioP2;P2;SDS_P1;SDS_P2;PMS_P1;PMS_P2;Temp;Humidity;BMP_temperature;BMP_pressure;BME280_temperature;BME280_humidity;BME280_pressure;Samples;Min_cycle;Max_cycle;Signal;HPM_P1;HPM_P2
2022/09/19 00:00:37;;;;;;;4.05;1.9;;;;;;;9.27;91.06348;95111.01;;;;
2022/09/19 00:01:38;;;;;;;4.05;1.9;;;;;;;9.27;91.06348;95111.01;;;;
2022/09/19 00:02:41;;;;;;;4.05;1.9;;;;;;;9.27;91.06348;95111.01;;;;
2022/09/19 00:03:41;;;;;;;4.05;1.9;;;;;;;9.27;91.06348;95111.01;;;;
2022/09/19 00:04:45;;;;;;;4.05;1.9;;;;;;;9.27;91.06348;95111.01;;;;
2022/09/19 00:05:46;;;;;;;4.05;1.9;;;;;;;9.27;91.06348;95111.01;;;;
2022/09/19 00:06:47;;;;;;;4.05;1.9;;;;;;;9.27;91.06348;95111.01;;;;
2022/09/19 00:07:49;;;;;;;1.9;1.8;;;;;;;9.26;91.18945;95107.14;;;;
2022/09/19 00:08:50;;;;;;;1.9;1.8;;;;;;;9.26;91.18945;95107.14;;;;
2022/09/19 00:09:51;;;;;;;1.9;1.8;;;;;;;9.26;91.18945;95107.14;;;;
2022/09/19 00:10:51;;;;;;;1.9;1.8;;;;;;;9.26;91.18945;95107.14;;;;
2022/09/19 00:11:52;;;;;;;1.9;1.8;;;;;;;9.26;91.18945;95107.14;;;;
2022/09/19 00:12:55;;;;;;;1.9;1.8;;;;;;;9.26;91.18945;95107.14;;;;
2022/09/19 00:13:56;;;;;;;1.9;1.8;;;;;;;9.26;91.18945;95107.14;;;;
2022/09/19 00:14:59;;;;;;;1.9;1.8;;;;;;;9.26;91.18945;95107.14;;;;
2022/09/19 00:16:00;;;;;;;1.9;1.8;;;;;;;9.26;91.18945;95107.14;;;;
2022/09/19 00:17:01;;;;;;;1.9;1.8;;;;;;;9.26;91.18945;95107.14;;;;
2022/09/19 00:18:05;;;;;;;1.9;1.8;;;;;;;9.26;91.18945;95107.14;;;;
2022/09/19 00:19:06;;;;;;;2;1.85;;;;;;;9.27;91.2793;95093.37;;;;
2022/09/19 00:20:09;;;;;;;2;1.85;;;;;;;9.27;91.2793;95093.37;;;;
2022/09/19 00:21:09;;;;;;;2;1.85;;;;;;;9.27;91.2793;95093.37;;;;
2022/09/19 00:22:10;;;;;;;2;1.85;;;;;;;9.27;91.2793;95093.37;;;;
2022/09/19 00:28:27;;;;;;;2;1.85;;;;;;;9.27;91.2793;95093.37;;;;
2022/09/19 00:29:28;;;;;;;2;1.85;;;;;;;9.27;91.2793;95093.37;;;;
2022/09/19 00:30:29;;;;;;;2;1.85;;;;;;;9.27;91.2793;95093.37;;;;
2022/09/19 00:31:30;;;;;;;2;1.85;;;;;;;9.27;91.2793;95093.37;;;;
2022/09/19 00:32:32;;;;;;;2;1.85;;;;;;;9.27;91.2793;95093.37;;;;
2022/09/19 00:33:32;;;;;;;2;1.85;;;;;;;9.27;91.2793;95093.37;;;;
2022/09/19 00:34:33;;;;;;;2;1.85;;;;;;;9.27;91.2793;95093.37;;;;
2022/09/19 00:35:34;;;;;;;2;1.85;;;;;;;9.27;91.2793;95093.37;;;;
2022/09/19 00:36:35;;;;;;;2;1.85;;;;;;;9.27;91.2793;95093.37;;;;
2022/09/19 00:37:37;;;;;;;2;1.85;;;;;;;9.27;91.2793;95093.37;;;;
2022/09/19 00:38:37;;;;;;;2;1.85;;;;;;;9.27;91.2793;95093.37;;;;
2022/09/19 00:39:38;;;;;;;2;1.85;;;;;;;9.27;91.2793;95093.37;;;;
2022/09/19 00:40:39;;;;;;;2;1.85;;;;;;;9.27;91.2793;95093.37;;;;
2022/09/19 00:41:40;;;;;;;2;1.85;;;;;;;9.27;91.2793;95093.37;;;;
2022/09/19 00:42:41;;;;;;;2;1.85;;;;;;;9.27;91.2793;95093.37;;;;
2022/09/19 00:43:41;;;;;;;2;1.85;;;;;;;9.27;91.2793;95093.37;;;;
2022/09/19 00:44:46;;;;;;;2;1.85;;;;;;;9.27;91.2793;95093.37;;;;
2022/09/19 00:45:53;;;;;;;2;1.85;;;;;;;9.27;91.2793;95093.37;;;;
2022/09/19 00:46:53;;;;;;;2;1.85;;;;;;;9.27;91.2793;95093.37;;;;
2022/09/19 00:47:57;;;;;;;2;1.85;;;;;;;9.27;91.2793;95093.37;;;;
2022/09/19 00:48:59;;;;;;;2;1.85;;;;;;;9.27;91.2793;95093.37;;;;
2022/09/19 00:50:04;;;;;;;2;1.85;;;;;;;9.27;91.2793;95093.37;;;;
2022/09/19 00:51:13;;;;;;;3;2.55;;;;;;;9.25;91.7002;95109.91;;;;
2022/09/19 00:52:19;;;;;;;3;2.55;;;;;;;9.25;91.7002;95109.91;;;;
2022/09/19 00:53:30;;;;;;;3;2.55;;;;;;;9.25;91.7002;95109.91;;;;
2022/09/19 00:54:31;;;;;;;3;2.55;;;;;;;9.25;91.7002;95109.91;;;;
2022/09/19 00:55:37;;;;;;;3;2.55;;;;;;;9.25;91.7002;95109.91;;;;
2022/09/19 00:56:39;;;;;;;3;2.55;;;;;;;9.25;91.7002;95109.91;;;;
2022/09/19 00:57:43;;;;;;;3;2.55;;;;;;;9.25;91.7002;95109.91;;;;
2022/09/19 00:58:53;;;;;;;3;2.55;;;;;;;9.25;91.7002;95109.91;;;;
2022/09/19 00:59:55;;;;;;;3;2.55;;;;;;;9.25;91.7002;95109.91;;;;
2022/09/19 01:00:57;;;;;;;2.6;2.3;;;;;;;9.22;91.69629;95115.59;;;;
2022/09/19 01:01:59;;;;;;;2.6;2.3;;;;;;;9.22;91.69629;95115.59;;;;
2022/09/19 01:03:01;;;;;;;2.6;2.3;;;;;;;9.22;91.69629;95115.59;;;;
2022/09/19 01:04:04;;;;;;;2.6;2.3;;;;;;;9.22;91.69629;95115.59;;;;
2022/09/19 01:05:13;;;;;;;2.6;2.3;;;;;;;9.22;91.69629;95115.59;;;;
2022/09/19 01:06:14;;;;;;;2.6;2.3;;;;;;;9.22;91.69629;95115.59;;;;
2022/09/19 01:07:30;;;;;;;2.6;2.3;;;;;;;9.22;91.69629;95115.59;;;;
2022/09/19 01:08:43;;;;;;;2.6;2.3;;;;;;;9.22;91.69629;95115.59;;;;
2022/09/19 01:09:58;;;;;;;2.6;2.3;;;;;;;9.22;91.69629;95115.59;;;;
2022/09/19 01:11:09;;;;;;;2.6;2.3;;;;;;;9.22;91.69629;95115.59;;;;
2022/09/19 01:12:24;;;;;;;3.6;2.35;;;;;;;9.18;91.87793;95113.56;;;;
2022/09/19 01:13:38;;;;;;;3.6;2.35;;;;;;;9.18;91.87793;95113.56;;;;
2022/09/19 01:14:51;;;;;;;3.6;2.35;;;;;;;9.18;91.87793;95113.56;;;;
2022/09/19 01:16:09;;;;;;;3.6;2.35;;;;;;;9.18;91.87793;95113.56;;;;
2022/09/19 01:17:19;;;;;;;3.6;2.35;;;;;;;9.18;91.87793;95113.56;;;;
2022/09/19 01:18:24;;;;;;;3.6;2.35;;;;;;;9.18;91.87793;95113.56;;;;
2022/09/19 01:19:30;;;;;;;3.6;2.35;;;;;;;9.18;91.87793;95113.56;;;;
2022/09/19 01:20:55;;;;;;;3.6;2.35;;;;;;;9.18;91.87793;95113.56;;;;
2022/09/19 01:22:06;;;;;;;3.6;2.35;;;;;;;9.18;91.87793;95113.56;;;;
2022/09/19 01:23:19;;;;;;;3.5;2.1;;;;;;;9.24;92.02051;95095.08;;;;
2022/09/19 01:24:37;;;;;;;3.5;2.1;;;;;;;9.24;92.02051;95095.08;;;;
2022/09/19 01:25:52;;;;;;;3.5;2.1;;;;;;;9.24;92.02051;95095.08;;;;
2022/09/19 01:27:05;;;;;;;3.5;2.1;;;;;;;9.24;92.02051;95095.08;;;;
2022/09/19 01:29:24;;;;;;;3.5;2.1;;;;;;;9.24;92.02051;95095.08;;;;
2022/09/19 01:30:29;;;;;;;3.5;2.1;;;;;;;9.24;92.02051;95095.08;;;;
2022/09/19 01:31:35;;;;;;;3.5;2.1;;;;;;;9.24;92.02051;95095.08;;;;
2022/09/19 01:32:42;;;;;;;3.5;2.1;;;;;;;9.24;92.02051;95095.08;;;;
2022/09/19 01:33:53;;;;;;;3;2.45;;;;;;;9.24;91.9668;95114.86;;;;
2022/09/19 01:35:01;;;;;;;3;2.45;;;;;;;9.24;91.9668;95114.86;;;;
2022/09/19 01:36:09;;;;;;;3;2.45;;;;;;;9.24;91.9668;95114.86;;;;
2022/09/19 01:37:12;;;;;;;3;2.45;;;;;;;9.24;91.9668;95114.86;;;;
2022/09/19 01:38:17;;;;;;;3;2.45;;;;;;;9.24;91.9668;95114.86;;;;
2022/09/19 01:39:21;;;;;;;3;2.45;;;;;;;9.24;91.9668;95114.86;;;;
2022/09/19 01:40:24;;;;;;;3;2.45;;;;;;;9.24;91.9668;95114.86;;;;
2022/09/19 01:41:25;;;;;;;3;2.45;;;;;;;9.24;91.9668;95114.86;;;;
2022/09/19 01:42:25;;;;;;;3;2.45;;;;;;;9.24;91.9668;95114.86;;;;
2022/09/19 01:43:26;;;;;;;3;2.45;;;;;;;9.24;91.9668;95114.86;;;;
2022/09/19 01:44:27;;;;;;;3.5;2.4;;;;;;;9.17;91.98242;95135.18;;;;
2022/09/19 01:45:31;;;;;;;3.5;2.4;;;;;;;9.17;91.98242;95135.18;;;;
2022/09/19 01:46:35;;;;;;;3.5;2.4;;;;;;;9.17;91.98242;95135.18;;;;
2022/09/19 01:47:47;;;;;;;3.5;2.4;;;;;;;9.17;91.98242;95135.18;;;;
2022/09/19 01:48:54;;;;;;;3.5;2.4;;;;;;;9.17;91.98242;95135.18;;;;
2022/09/19 01:50:02;;;;;;;3.5;2.4;;;;;;;9.17;91.98242;95135.18;;;;
2022/09/19 01:51:10;;;;;;;3.5;2.4;;;;;;;9.17;91.98242;95135.18;;;;
2022/09/19 01:52:21;;;;;;;3.5;2.4;;;;;;;9.17;91.98242;95135.18;;;;
2022/09/19 01:53:45;;;;;;;3.5;2.4;;;;;;;9.17;91.98242;95135.18;;;;
2022/09/19 01:55:00;;;;;;;2.900001;1.8;;;;;;;9.12;92.09863;95145.53;;;;
2022/09/19 01:56:09;;;;;;;2.900001;1.8;;;;;;;9.12;92.09863;95145.53;;;;
2022/09/19 01:57:14;;;;;;;2.900001;1.8;;;;;;;9.12;92.09863;95145.53;;;;
2022/09/19 01:58:26;;;;;;;2.900001;1.8;;;;;;;9.12;92.09863;95145.53;;;;
2022/09/19 01:59:37;;;;;;;2.900001;1.8;;;;;;;9.12;92.09863;95145.53;;;;
2022/09/19 02:00:49;;;;;;;2.900001;1.8;;;;;;;9.12;92.09863;95145.53;;;;
2022/09/19 02:01:55;;;;;;;2.900001;1.8;;;;;;;9.12;92.09863;95145.53;;;;
2022/09/19 02:03:07;;;;;;;2.900001;1.8;;;;;;;9.12;92.09863;95145.53;;;;
2022/09/19 02:04:16;;;;;;;2.900001;1.8;;;;;;;9.12;92.09863;95145.53;;;;
2022/09/19 02:05:21;;;;;;;3.5;2.2;;;;;;;9.05;92.24512;95158.81;;;;
2022/09/19 02:06:32;;;;;;;3.5;2.2;;;;;;;9.05;92.24512;95158.81;;;;
2022/09/19 02:07:43;;;;;;;3.5;2.2;;;;;;;9.05;92.24512;95158.81;;;;
2022/09/19 02:08:53;;;;;;;3.5;2.2;;;;;;;9.05;92.24512;95158.81;;;;
2022/09/19 02:10:01;;;;;;;3.5;2.2;;;;;;;9.05;92.24512;95158.81;;;;
2022/09/19 02:11:11;;;;;;;3.5;2.2;;;;;;;9.05;92.24512;95158.81;;;;
2022/09/19 02:12:16;;;;;;;3.5;2.2;;;;;;;9.05;92.24512;95158.81;;;;
2022/09/19 02:13:21;;;;;;;3.5;2.2;;;;;;;9.05;92.24512;95158.81;;;;
2022/09/19 02:14:26;;;;;;;3.5;2.2;;;;;;;9.05;92.24512;95158.81;;;;
2022/09/19 02:15:30;;;;;;;3.5;2.2;;;;;;;9.05;92.24512;95158.81;;;;
2022/09/19 02:16:36;;;;;;;1.8;1.7;;;;;;;8.97;92.33594;95170.39;;;;
2022/09/19 02:17:44;;;;;;;1.8;1.7;;;;;;;8.97;92.33594;95170.39;;;;
2022/09/19 02:18:53;;;;;;;1.8;1.7;;;;;;;8.97;92.33594;95170.39;;;;
2022/09/19 02:19:58;;;;;;;1.8;1.7;;;;;;;8.97;92.33594;95170.39;;;;
2022/09/19 02:21:03;;;;;;;1.8;1.7;;;;;;;8.97;92.33594;95170.39;;;;
2022/09/19 02:22:08;;;;;;;1.8;1.7;;;;;;;8.97;92.33594;95170.39;;;;
2022/09/19 02:23:14;;;;;;;1.8;1.7;;;;;;;8.97;92.33594;95170.39;;;;
2022/09/19 02:24:20;;;;;;;1.8;1.7;;;;;;;8.97;92.33594;95170.39;;;;
2022/09/19 02:25:32;;;;;;;1.8;1.7;;;;;;;8.97;92.33594;95170.39;;;;
2022/09/19 02:26:35;;;;;;;2.95;1.6;;;;;;;8.82;92.30469;95179.42;;;;
2022/09/19 02:27:38;;;;;;;2.95;1.6;;;;;;;8.82;92.30469;95179.42;;;;
2022/09/19 02:28:43;;;;;;;2.95;1.6;;;;;;;8.82;92.30469;95179.42;;;;
2022/09/19 02:29:46;;;;;;;2.95;1.6;;;;;;;8.82;92.30469;95179.42;;;;
2022/09/19 02:30:52;;;;;;;2.95;1.6;;;;;;;8.82;92.30469;95179.42;;;;
2022/09/19 02:31:54;;;;;;;2.95;1.6;;;;;;;8.82;92.30469;95179.42;;;;
2022/09/19 02:32:54;;;;;;;2.95;1.6;;;;;;;8.82;92.30469;95179.42;;;;
2022/09/19 02:33:56;;;;;;;2.95;1.6;;;;;;;8.82;92.30469;95179.42;;;;
2022/09/19 02:34:59;;;;;;;2.95;1.6;;;;;;;8.82;92.30469;95179.42;;;;
2022/09/19 02:36:00;;;;;;;2.95;1.6;;;;;;;8.82;92.30469;95179.42;;;;
2022/09/19 02:37:09;;;;;;;2.55;1.5;;;;;;;8.67;92.35742;95186.72;;;;
2022/09/19 02:38:16;;;;;;;2.55;1.5;;;;;;;8.67;92.35742;95186.72;;;;
2022/09/19 02:39:25;;;;;;;2.55;1.5;;;;;;;8.67;92.35742;95186.72;;;;
2022/09/19 02:40:28;;;;;;;2.55;1.5;;;;;;;8.67;92.35742;95186.72;;;;
2022/09/19 02:41:36;;;;;;;2.55;1.5;;;;;;;8.67;92.35742;95186.72;;;;
2022/09/19 02:42:41;;;;;;;2.55;1.5;;;;;;;8.67;92.35742;95186.72;;;;
2022/09/19 02:43:50;;;;;;;2.55;1.5;;;;;;;8.67;92.35742;95186.72;;;;
2022/09/19 02:44:57;;;;;;;2.55;1.5;;;;;;;8.67;92.35742;95186.72;;;;
2022/09/19 02:46:07;;;;;;;2.55;1.5;;;;;;;8.67;92.35742;95186.72;;;;
2022/09/19 02:47:16;;;;;;;2.55;1.5;;;;;;;8.67;92.35742;95186.72;;;;
2022/09/19 02:48:23;;;;;;;1.5;1.4;;;;;;;8.5;92.38574;95193.41;;;;
2022/09/19 02:49:36;;;;;;;1.5;1.4;;;;;;;8.5;92.38574;95193.41;;;;
2022/09/19 02:50:43;;;;;;;1.5;1.4;;;;;;;8.5;92.38574;95193.41;;;;
2022/09/19 02:51:51;;;;;;;1.5;1.4;;;;;;;8.5;92.38574;95193.41;;;;
2022/09/19 02:52:57;;;;;;;1.5;1.4;;;;;;;8.5;92.38574;95193.41;;;;
2022/09/19 02:54:01;;;;;;;1.5;1.4;;;;;;;8.5;92.38574;95193.41;;;;
2022/09/19 02:55:06;;;;;;;1.5;1.4;;;;;;;8.5;92.38574;95193.41;;;;
2022/09/19 02:56:13;;;;;;;1.5;1.4;;;;;;;8.5;92.38574;95193.41;;;;
2022/09/19 02:57:17;;;;;;;1.5;1.4;;;;;;;8.5;92.38574;95193.41;;;;
2022/09/19 02:58:22;;;;;;;1.5;1.4;;;;;;;8.5;92.38574;95193.41;;;;
2022/09/19 02:59:28;;;;;;;1.3;1.2;;;;;;;8.27;92.43164;95210.99;;;;
2022/09/19 03:00:33;;;;;;;1.3;1.2;;;;;;;8.27;92.43164;95210.99;;;;
2022/09/19 03:01:37;;;;;;;1.3;1.2;;;;;;;8.27;92.43164;95210.99;;;;
2022/09/19 03:02:41;;;;;;;1.3;1.2;;;;;;;8.27;92.43164;95210.99;;;;
2022/09/19 03:04:19;;;;;;;1.3;1.2;;;;;;;8.27;92.43164;95210.99;;;;
2022/09/19 03:05:26;;;;;;;1.3;1.2;;;;;;;8.27;92.43164;95210.99;;;;
2022/09/19 03:06:28;;;;;;;1.3;1.2;;;;;;;8.27;92.43164;95210.99;;;;
2022/09/19 03:07:36;;;;;;;1.3;1.2;;;;;;;8.27;92.43164;95210.99;;;;
2022/09/19 03:08:42;;;;;;;1.3;1.2;;;;;;;8.27;92.43164;95210.99;;;;
2022/09/19 03:09:46;;;;;;;1.75;1.3;;;;;;;8.09;92.35156;95224.27;;;;
2022/09/19 03:10:51;;;;;;;1.75;1.3;;;;;;;8.09;92.35156;95224.27;;;;
2022/09/19 03:11:57;;;;;;;1.75;1.3;;;;;;;8.09;92.35156;95224.27;;;;
2022/09/19 03:13:05;;;;;;;1.75;1.3;;;;;;;8.09;92.35156;95224.27;;;;
2022/09/19 03:14:09;;;;;;;1.75;1.3;;;;;;;8.09;92.35156;95224.27;;;;
2022/09/19 03:15:10;;;;;;;1.75;1.3;;;;;;;8.09;92.35156;95224.27;;;;
2022/09/19 03:16:11;;;;;;;1.75;1.3;;;;;;;8.09;92.35156;95224.27;;;;
2022/09/19 03:17:16;;;;;;;1.75;1.3;;;;;;;8.09;92.35156;95224.27;;;;
2022/09/19 03:18:19;;;;;;;1.75;1.3;;;;;;;8.09;92.35156;95224.27;;;;
2022/09/19 03:19:20;;;;;;;1.75;1.3;;;;;;;8.09;92.35156;95224.27;;;;
2022/09/19 03:20:23;;;;;;;1.85;1.2;;;;;;;7.8;92.10742;95234.69;;;;
2022/09/19 03:21:24;;;;;;;1.85;1.2;;;;;;;7.8;92.10742;95234.69;;;;
2022/09/19 03:22:25;;;;;;;1.85;1.2;;;;;;;7.8;92.10742;95234.69;;;;
2022/09/19 03:23:26;;;;;;;1.85;1.2;;;;;;;7.8;92.10742;95234.69;;;;
2022/09/19 03:24:31;;;;;;;1.85;1.2;;;;;;;7.8;92.10742;95234.69;;;;
2022/09/19 03:25:32;;;;;;;1.85;1.2;;;;;;;7.8;92.10742;95234.69;;;;
2022/09/19 03:26:34;;;;;;;1.85;1.2;;;;;;;7.8;92.10742;95234.69;;;;
2022/09/19 03:27:37;;;;;;;1.85;1.2;;;;;;;7.8;92.10742;95234.69;;;;
2022/09/19 03:28:37;;;;;;;1.85;1.2;;;;;;;7.8;92.10742;95234.69;;;;
2022/09/19 03:29:38;;;;;;;1.85;1.2;;;;;;;7.8;92.10742;95234.69;;;;
2022/09/19 03:30:39;;;;;;;1.85;1.2;;;;;;;7.8;92.10742;95234.69;;;;
2022/09/19 03:31:39;;;;;;;1.85;1.25;;;;;;;7.51;92.11328;95236.17;;;;
2022/09/19 03:32:41;;;;;;;1.85;1.25;;;;;;;7.51;92.11328;95236.17;;;;
2022/09/19 03:33:41;;;;;;;1.85;1.25;;;;;;;7.51;92.11328;95236.17;;;;
2022/09/19 03:34:42;;;;;;;1.85;1.25;;;;;;;7.51;92.11328;95236.17;;;;
2022/09/19 03:35:43;;;;;;;1.85;1.25;;;;;;;7.51;92.11328;95236.17;;;;
2022/09/19 03:36:44;;;;;;;1.85;1.25;;;;;;;7.51;92.11328;95236.17;;;;
2022/09/19 03:37:45;;;;;;;1.85;1.25;;;;;;;7.51;92.11328;95236.17;;;;
2022/09/19 03:38:45;;;;;;;1.85;1.25;;;;;;;7.51;92.11328;95236.17;;;;
2022/09/19 03:39:46;;;;;;;1.85;1.25;;;;;;;7.51;92.11328;95236.17;;;;
2022/09/19 03:40:46;;;;;;;1.85;1.25;;;;;;;7.51;92.11328;95236.17;;;;
2022/09/19 03:41:49;;;;;;;3.2;1.15;;;;;;;7.22;92.20996;95250.86;;;;
2022/09/19 03:42:51;;;;;;;3.2;1.15;;;;;;;7.22;92.20996;95250.86;;;;
2022/09/19 03:43:52;;;;;;;3.2;1.15;;;;;;;7.22;92.20996;95250.86;;;;
2022/09/19 03:44:52;;;;;;;3.2;1.15;;;;;;;7.22;92.20996;95250.86;;;;
2022/09/19 03:45:54;;;;;;;3.2;1.15;;;;;;;7.22;92.20996;95250.86;;;;
2022/09/19 03:46:54;;;;;;;3.2;1.15;;;;;;;7.22;92.20996;95250.86;;;;
2022/09/19 03:47:55;;;;;;;3.2;1.15;;;;;;;7.22;92.20996;95250.86;;;;
2022/09/19 03:48:55;;;;;;;3.2;1.15;;;;;;;7.22;92.20996;95250.86;;;;
2022/09/19 03:49:58;;;;;;;3.2;1.15;;;;;;;7.22;92.20996;95250.86;;;;
2022/09/19 03:51:00;;;;;;;3.2;1.15;;;;;;;7.22;92.20996;95250.86;;;;
2022/09/19 03:52:01;;;;;;;3.2;1.15;;;;;;;7.22;92.20996;95250.86;;;;
2022/09/19 03:53:01;;;;;;;2.8;1.1;;;;;;;7.05;92.4502;95264.9;;;;
2022/09/19 03:54:02;;;;;;;2.8;1.1;;;;;;;7.05;92.4502;95264.9;;;;
2022/09/19 03:55:03;;;;;;;2.8;1.1;;;;;;;7.05;92.4502;95264.9;;;;
2022/09/19 03:56:04;;;;;;;2.8;1.1;;;;;;;7.05;92.4502;95264.9;;;;
2022/09/19 03:57:05;;;;;;;2.8;1.1;;;;;;;7.05;92.4502;95264.9;;;;
2022/09/19 03:58:05;;;;;;;2.8;1.1;;;;;;;7.05;92.4502;95264.9;;;;
2022/09/19 03:59:06;;;;;;;2.8;1.1;;;;;;;7.05;92.4502;95264.9;;;;
2022/09/19 04:00:06;;;;;;;2.8;1.1;;;;;;;7.05;92.4502;95264.9;;;;
2022/09/19 04:01:08;;;;;;;2.8;1.1;;;;;;;7.05;92.4502;95264.9;;;;
2022/09/19 04:02:10;;;;;;;2.8;1.1;;;;;;;7.05;92.4502;95264.9;;;;
2022/09/19 04:03:10;;;;;;;1.2;1.1;;;;;;;6.81;92.4209;95285.8;;;;
2022/09/19 04:04:11;;;;;;;1.2;1.1;;;;;;;6.81;92.4209;95285.8;;;;
2022/09/19 04:05:13;;;;;;;1.2;1.1;;;;;;;6.81;92.4209;95285.8;;;;
2022/09/19 04:06:13;;;;;;;1.2;1.1;;;;;;;6.81;92.4209;95285.8;;;;
2022/09/19 04:07:15;;;;;;;1.2;1.1;;;;;;;6.81;92.4209;95285.8;;;;
2022/09/19 04:08:16;;;;;;;1.2;1.1;;;;;;;6.81;92.4209;95285.8;;;;
2022/09/19 04:09:16;;;;;;;1.2;1.1;;;;;;;6.81;92.4209;95285.8;;;;
2022/09/19 04:10:17;;;;;;;1.2;1.1;;;;;;;6.81;92.4209;95285.8;;;;
2022/09/19 04:11:18;;;;;;;1.2;1.1;;;;;;;6.81;92.4209;95285.8;;;;
2022/09/19 04:12:19;;;;;;;1.2;1.1;;;;;;;6.81;92.4209;95285.8;;;;
2022/09/19 04:13:21;;;;;;;1.2;1.1;;;;;;;6.81;92.4209;95285.8;;;;
2022/09/19 04:14:22;;;;;;;2.55;1.1;;;;;;;6.6;92.6084;95301.56;;;;
2022/09/19 04:15:23;;;;;;;2.55;1.1;;;;;;;6.6;92.6084;95301.56;;;;
2022/09/19 04:16:25;;;;;;;2.55;1.1;;;;;;;6.6;92.6084;95301.56;;;;
2022/09/19 04:17:27;;;;;;;2.55;1.1;;;;;;;6.6;92.6084;95301.56;;;;
2022/09/19 04:18:28;;;;;;;2.55;1.1;;;;;;;6.6;92.6084;95301.56;;;;
2022/09/19 04:19:29;;;;;;;2.55;1.1;;;;;;;6.6;92.6084;95301.56;;;;
2022/09/19 04:20:30;;;;;;;2.55;1.1;;;;;;;6.6;92.6084;95301.56;;;;
2022/09/19 04:21:31;;;;;;;2.55;1.1;;;;;;;6.6;92.6084;95301.56;;;;
2022/09/19 04:22:31;;;;;;;2.55;1.1;;;;;;;6.6;92.6084;95301.56;;;;
2022/09/19 04:23:33;;;;;;;2.55;1.1;;;;;;;6.6;92.6084;95301.56;;;;
2022/09/19 04:24:33;;;;;;;2.7;1.4;;;;;;;6.47;92.81348;95315.87;;;;
2022/09/19 04:25:35;;;;;;;2.7;1.4;;;;;;;6.47;92.81348;95315.87;;;;
2022/09/19 04:26:36;;;;;;;2.7;1.4;;;;;;;6.47;92.81348;95315.87;;;;
2022/09/19 04:27:37;;;;;;;2.7;1.4;;;;;;;6.47;92.81348;95315.87;;;;
2022/09/19 04:28:39;;;;;;;2.7;1.4;;;;;;;6.47;92.81348;95315.87;;;;
2022/09/19 04:29:40;;;;;;;2.7;1.4;;;;;;;6.47;92.81348;95315.87;;;;
2022/09/19 04:30:41;;;;;;;2.7;1.4;;;;;;;6.47;92.81348;95315.87;;;;
2022/09/19 04:31:42;;;;;;;2.7;1.4;;;;;;;6.47;92.81348;95315.87;;;;
2022/09/19 04:32:43;;;;;;;2.7;1.4;;;;;;;6.47;92.81348;95315.87;;;;
2022/09/19 04:33:43;;;;;;;2.7;1.4;;;;;;;6.47;92.81348;95315.87;;;;
2022/09/19 04:34:44;;;;;;;2.7;1.4;;;;;;;6.47;92.81348;95315.87;;;;
2022/09/19 04:35:45;;;;;;;1.9;1.4;;;;;;;6.47;92.87695;95315.45;;;;
2022/09/19 04:36:50;;;;;;;1.9;1.4;;;;;;;6.47;92.87695;95315.45;;;;
2022/09/19 04:37:51;;;;;;;1.9;1.4;;;;;;;6.47;92.87695;95315.45;;;;
2022/09/19 04:38:52;;;;;;;1.9;1.4;;;;;;;6.47;92.87695;95315.45;;;;
2022/09/19 04:39:53;;;;;;;1.9;1.4;;;;;;;6.47;92.87695;95315.45;;;;
2022/09/19 04:40:56;;;;;;;1.9;1.4;;;;;;;6.47;92.87695;95315.45;;;;
2022/09/19 04:41:59;;;;;;;1.9;1.4;;;;;;;6.47;92.87695;95315.45;;;;
2022/09/19 04:43:00;;;;;;;1.9;1.4;;;;;;;6.47;92.87695;95315.45;;;;
2022/09/19 04:44:00;;;;;;;1.9;1.4;;;;;;;6.47;92.87695;95315.45;;;;
2022/09/19 04:45:03;;;;;;;1.9;1.4;;;;;;;6.47;92.87695;95315.45;;;;
2022/09/19 04:46:06;;;;;;;3.75;1.35;;;;;;;6.43;92.74219;95331.69;;;;
2022/09/19 04:47:06;;;;;;;3.75;1.35;;;;;;;6.43;92.74219;95331.69;;;;
2022/09/19 04:48:07;;;;;;;3.75;1.35;;;;;;;6.43;92.74219;95331.69;;;;
2022/09/19 04:49:08;;;;;;;3.75;1.35;;;;;;;6.43;92.74219;95331.69;;;;
2022/09/19 04:50:09;;;;;;;3.75;1.35;;;;;;;6.43;92.74219;95331.69;;;;
2022/09/19 04:51:11;;;;;;;3.75;1.35;;;;;;;6.43;92.74219;95331.69;;;;
2022/09/19 04:52:12;;;;;;;3.75;1.35;;;;;;;6.43;92.74219;95331.69;;;;
2022/09/19 04:53:13;;;;;;;3.75;1.35;;;;;;;6.43;92.74219;95331.69;;;;
2022/09/19 04:54:14;;;;;;;3.75;1.35;;;;;;;6.43;92.74219;95331.69;;;;
2022/09/19 04:55:14;;;;;;;3.75;1.35;;;;;;;6.43;92.74219;95331.69;;;;
2022/09/19 04:56:17;;;;;;;1.65;1.3;;;;;;;6.4;92.77637;95340.02;;;;
2022/09/19 04:57:17;;;;;;;1.65;1.3;;;;;;;6.4;92.77637;95340.02;;;;
2022/09/19 04:58:18;;;;;;;1.65;1.3;;;;;;;6.4;92.77637;95340.02;;;;
2022/09/19 04:59:20;;;;;;;1.65;1.3;;;;;;;6.4;92.77637;95340.02;;;;
2022/09/19 05:00:38;;;;;;;1.65;1.3;;;;;;;6.4;92.77637;95340.02;;;;
2022/09/19 05:01:39;;;;;;;1.65;1.3;;;;;;;6.4;92.77637;95340.02;;;;
2022/09/19 05:02:39;;;;;;;1.65;1.3;;;;;;;6.4;92.77637;95340.02;;;;
2022/09/19 05:03:43;;;;;;;1.65;1.3;;;;;;;6.4;92.77637;95340.02;;;;
2022/09/19 05:04:45;;;;;;;1.65;1.3;;;;;;;6.4;92.77637;95340.02;;;;
2022/09/19 05:05:50;;;;;;;1.65;1.3;;;;;;;6.4;92.77637;95340.02;;;;
2022/09/19 05:06:51;;;;;;;1.65;1.3;;;;;;;6.4;92.77637;95340.02;;;;
2022/09/19 05:07:52;;;;;;;3.7;1.4;;;;;;;6.39;92.77441;95344.04;;;;
2022/09/19 05:08:53;;;;;;;3.7;1.4;;;;;;;6.39;92.77441;95344.04;;;;
2022/09/19 05:09:53;;;;;;;3.7;1.4;;;;;;;6.39;92.77441;95344.04;;;;
2022/09/19 05:10:54;;;;;;;3.7;1.4;;;;;;;6.39;92.77441;95344.04;;;;
2022/09/19 05:11:56;;;;;;;3.7;1.4;;;;;;;6.39;92.77441;95344.04;;;;
2022/09/19 05:12:57;;;;;;;3.7;1.4;;;;;;;6.39;92.77441;95344.04;;;;
2022/09/19 05:13:58;;;;;;;3.7;1.4;;;;;;;6.39;92.77441;95344.04;;;;
2022/09/19 05:14:59;;;;;;;3.7;1.4;;;;;;;6.39;92.77441;95344.04;;;;
2022/09/19 05:16:00;;;;;;;3.7;1.4;;;;;;;6.39;92.77441;95344.04;;;;
2022/09/19 05:17:01;;;;;;;3.7;1.4;;;;;;;6.39;92.77441;95344.04;;;;
2022/09/19 05:18:02;;;;;;;6.749999;1.6;;;;;;;6.4;92.76563;95357.09;;;;
2022/09/19 05:19:03;;;;;;;6.749999;1.6;;;;;;;6.4;92.76563;95357.09;;;;
2022/09/19 05:20:03;;;;;;;6.749999;1.6;;;;;;;6.4;92.76563;95357.09;;;;
2022/09/19 05:21:05;;;;;;;6.749999;1.6;;;;;;;6.4;92.76563;95357.09;;;;
2022/09/19 05:22:07;;;;;;;6.749999;1.6;;;;;;;6.4;92.76563;95357.09;;;;
2022/09/19 05:23:08;;;;;;;6.749999;1.6;;;;;;;6.4;92.76563;95357.09;;;;
2022/09/19 05:24:08;;;;;;;6.749999;1.6;;;;;;;6.4;92.76563;95357.09;;;;
2022/09/19 05:25:09;;;;;;;6.749999;1.6;;;;;;;6.4;92.76563;95357.09;;;;
2022/09/19 05:26:10;;;;;;;6.749999;1.6;;;;;;;6.4;92.76563;95357.09;;;;
2022/09/19 05:27:13;;;;;;;6.749999;1.6;;;;;;;6.4;92.76563;95357.09;;;;
2022/09/19 05:28:14;;;;;;;6.749999;1.6;;;;;;;6.4;92.76563;95357.09;;;;
2022/09/19 05:29:14;;;;;;;4;1.5;;;;;;;6.4;92.93555;95375.87;;;;
2022/09/19 05:30:15;;;;;;;4;1.5;;;;;;;6.4;92.93555;95375.87;;;;
2022/09/19 05:31:19;;;;;;;4;1.5;;;;;;;6.4;92.93555;95375.87;;;;
2022/09/19 05:32:20;;;;;;;4;1.5;;;;;;;6.4;92.93555;95375.87;;;;
2022/09/19 05:33:25;;;;;;;4;1.5;;;;;;;6.4;92.93555;95375.87;;;;
2022/09/19 05:34:26;;;;;;;4;1.5;;;;;;;6.4;92.93555;95375.87;;;;
2022/09/19 05:35:26;;;;;;;4;1.5;;;;;;;6.4;92.93555;95375.87;;;;
2022/09/19 05:36:27;;;;;;;4;1.5;;;;;;;6.4;92.93555;95375.87;;;;
2022/09/19 05:37:28;;;;;;;4;1.5;;;;;;;6.4;92.93555;95375.87;;;;
2022/09/19 05:38:28;;;;;;;4;1.5;;;;;;;6.4;92.93555;95375.87;;;;
2022/09/19 05:39:30;;;;;;;3.95;1.4;;;;;;;6.64;93.23145;95387.77;;;;
2022/09/19 05:40:31;;;;;;;3.95;1.4;;;;;;;6.64;93.23145;95387.77;;;;
2022/09/19 05:41:32;;;;;;;3.95;1.4;;;;;;;6.64;93.23145;95387.77;;;;
2022/09/19 05:42:34;;;;;;;3.95;1.4;;;;;;;6.64;93.23145;95387.77;;;;
2022/09/19 05:43:38;;;;;;;3.95;1.4;;;;;;;6.64;93.23145;95387.77;;;;
2022/09/19 05:44:39;;;;;;;3.95;1.4;;;;;;;6.64;93.23145;95387.77;;;;
2022/09/19 05:45:40;;;;;;;3.95;1.4;;;;;;;6.64;93.23145;95387.77;;;;
2022/09/19 05:46:42;;;;;;;3.95;1.4;;;;;;;6.64;93.23145;95387.77;;;;
2022/09/19 05:47:42;;;;;;;3.95;1.4;;;;;;;6.64;93.23145;95387.77;;;;
2022/09/19 05:48:43;;;;;;;3.95;1.4;;;;;;;6.64;93.23145;95387.77;;;;
2022/09/19 05:49:46;;;;;;;5.55;1.65;;;;;;;7.04;93.33887;95402.95;;;;
2022/09/19 05:50:47;;;;;;;5.55;1.65;;;;;;;7.04;93.33887;95402.95;;;;
2022/09/19 05:51:49;;;;;;;5.55;1.65;;;;;;;7.04;93.33887;95402.95;;;;
2022/09/19 05:53:57;;;;;;;5.55;1.65;;;;;;;7.04;93.33887;95402.95;;;;
2022/09/19 05:54:57;;;;;;;5.55;1.65;;;;;;;7.04;93.33887;95402.95;;;;
2022/09/19 05:55:58;;;;;;;5.55;1.65;;;;;;;7.04;93.33887;95402.95;;;;
2022/09/19 05:57:00;;;;;;;5.55;1.65;;;;;;;7.04;93.33887;95402.95;;;;
2022/09/19 05:58:01;;;;;;;5.55;1.65;;;;;;;7.04;93.33887;95402.95;;;;
2022/09/19 05:59:02;;;;;;;5.55;1.65;;;;;;;7.04;93.33887;95402.95;;;;
2022/09/19 06:00:02;;;;;;;5.55;1.65;;;;;;;7.04;93.33887;95402.95;;;;
2022/09/19 06:01:04;;;;;;;3.1;1.35;;;;;;;7.42;93.21973;95411.81;;;;
2022/09/19 06:02:07;;;;;;;3.1;1.35;;;;;;;7.42;93.21973;95411.81;;;;
2022/09/19 06:03:09;;;;;;;3.1;1.35;;;;;;;7.42;93.21973;95411.81;;;;
2022/09/19 06:04:12;;;;;;;3.1;1.35;;;;;;;7.42;93.21973;95411.81;;;;
2022/09/19 06:05:13;;;;;;;3.1;1.35;;;;;;;7.42;93.21973;95411.81;;;;
2022/09/19 06:06:16;;;;;;;3.1;1.35;;;;;;;7.42;93.21973;95411.81;;;;
2022/09/19 06:07:19;;;;;;;3.1;1.35;;;;;;;7.42;93.21973;95411.81;;;;
2022/09/19 06:08:21;;;;;;;3.1;1.35;;;;;;;7.42;93.21973;95411.81;;;;
2022/09/19 06:09:21;;;;;;;3.1;1.35;;;;;;;7.42;93.21973;95411.81;;;;
2022/09/19 06:10:23;;;;;;;3.1;1.35;;;;;;;7.42;93.21973;95411.81;;;;
2022/09/19 06:11:24;;;;;;;3.95;1.6;;;;;;;7.78;93.15625;95428.38;;;;
2022/09/19 06:12:25;;;;;;;3.95;1.6;;;;;;;7.78;93.15625;95428.38;;;;
2022/09/19 06:14:13;;;;;;;3.95;1.6;;;;;;;7.78;93.15625;95428.38;;;;
2022/09/19 06:15:14;;;;;;;3.95;1.6;;;;;;;7.78;93.15625;95428.38;;;;
2022/09/19 06:16:15;;;;;;;3.95;1.6;;;;;;;7.78;93.15625;95428.38;;;;
2022/09/19 06:17:16;;;;;;;3.95;1.6;;;;;;;7.78;93.15625;95428.38;;;;
2022/09/19 06:18:17;;;;;;;3.95;1.6;;;;;;;7.78;93.15625;95428.38;;;;
2022/09/19 06:19:17;;;;;;;3.95;1.6;;;;;;;7.78;93.15625;95428.38;;;;
2022/09/19 06:20:18;;;;;;;3.95;1.6;;;;;;;7.78;93.15625;95428.38;;;;
2022/09/19 06:21:18;;;;;;;3.95;1.6;;;;;;;7.78;93.15625;95428.38;;;;
2022/09/19 06:22:19;;;;;;;4.35;1.45;;;;;;;8.16;93.11035;95452.43;;;;
2022/09/19 06:23:19;;;;;;;4.35;1.45;;;;;;;8.16;93.11035;95452.43;;;;